Time;durP1;ratioP1;P1;durP2;ratioP2;P2;SDS_P1;SDS_P2;PMS_P1;PMS_P2;Temp;Humidity;BMP_temperature;BMP_pressure;BME280_temperature;BME280_humidity;BME280_pressure;Samples;Min_cycle;Max_cycle;Signal;HPM_P1;HPM_P2
2021/12/10 00:00:20;;;;;;;1.10;0.97;;;4.00;98.00;;;;;;5095522;28;20952;-61
2021/12/10 00:02:49;;;;;;;1.27;1.10;;;4.00;98.00;;;;;;5095143;28;20955;-63
2021/12/10 00:05:22;;;;;;;1.10;0.97;;;4.00;98.00;;;;;;5095258;28;20486;-63
2021/12/10 00:07:55;;;;;;;1.10;0.90;;;4.00;98.00;;;;;;5095309;28;20456;-61
2021/12/10 00:10:28;;;;;;;1.40;1.30;;;3.90;98.00;;;;;;5095122;28;20610;-62
2021/12/10 00:12:58;;;;;;;1.50;1.20;;;3.90;98.00;;;;;;5095111;28;20456;-62
2021/12/10 00:15:31;;;;;;;1.20;1.00;;;3.80;98.00;;;;;;5095295;28;20544;-62
2021/12/10 00:18:03;;;;;;;1.20;1.10;;;3.70;98.00;;;;;;5095127;28;20987;-63
2021/12/10 00:20:34;;;;;;;1.10;1.00;;;3.70;98.00;;;;;;5094913;28;20544;-62
2021/12/10 00:23:09;;;;;;;1.30;1.20;;;3.70;98.00;;;;;;5093939;28;20452;-62
2021/12/10 00:25:40;;;;;;;1.93;1.13;;;3.60;98.00;;;;;;5094981;28;20853;-61
2021/12/10 00:28:15;;;;;;;1.10;0.93;;;3.50;98.00;;;;;;5094859;28;20531;-62
2021/12/10 00:31:00;;;;;;;1.20;1.00;;;3.50;98.00;;;;;;5093804;28;20447;-62
2021/12/10 00:33:32;;;;;;;1.20;1.00;;;3.30;98.00;;;;;;5094911;28;20904;-61
2021/12/10 00:36:06;;;;;;;2.00;1.10;;;3.20;98.00;;;;;;5094747;28;20814;-61
2021/12/10 00:38:44;;;;;;;1.10;1.00;;;3.30;98.00;;;;;;5094719;28;20880;-61
2021/12/10 00:41:13;;;;;;;1.20;1.00;;;3.10;98.00;;;;;;5094671;28;20562;-62
2021/12/10 00:43:47;;;;;;;1.17;1.00;;;3.00;98.00;;;;;;5094671;28;20893;-62
2021/12/10 00:46:18;;;;;;;2.10;1.40;;;2.90;98.00;;;;;;5093305;28;20463;-61
2021/12/10 00:48:49;;;;;;;1.10;1.00;;;3.00;98.00;;;;;;5094675;28;20797;-62
2021/12/10 00:51:18;;;;;;;1.20;1.00;;;3.00;98.00;;;;;;5093263;28;20463;-64
2021/12/10 00:53:47;;;;;;;1.20;1.10;;;3.00;98.00;;;;;;5093298;28;20781;-61
2021/12/10 00:56:17;;;;;;;1.10;1.00;;;2.90;98.00;;;;;;5093240;28;20463;-63
2021/12/10 00:58:46;;;;;;;1.10;0.90;;;2.90;98.00;;;;;;5094404;28;20490;-61
2021/12/10 01:01:23;;;;;;;1.10;1.00;;;3.00;98.00;;;;;;5093103;28;20844;-61
2021/12/10 01:03:58;;;;;;;3.93;1.77;;;2.90;98.00;;;;;;5091999;28;21003;-61
2021/12/10 01:06:28;;;;;;;1.10;0.90;;;2.80;98.00;;;;;;5094432;28;20545;-62
2021/12/10 01:09:09;;;;;;;1.10;0.90;;;2.80;98.00;;;;;;5094336;28;20472;-62
2021/12/10 01:11:40;;;;;;;1.13;1.00;;;2.70;98.00;;;;;;5093170;28;20497;-61
2021/12/10 01:14:18;;;;;;;1.10;1.00;;;2.70;98.00;;;;;;5094361;28;20561;-60
2021/12/10 01:25:26;;;;;;;1.20;1.10;;;2.20;98.00;;;;;;5093860;28;20825;-62
2021/12/10 01:27:54;;;;;;;1.10;0.90;;;2.20;98.00;;;;;;5092797;28;20530;-61
2021/12/10 01:30:26;;;;;;;1.10;0.93;;;2.00;98.00;;;;;;5092501;28;20527;-62
2021/12/10 01:33:00;;;;;;;1.20;1.00;;;1.90;98.00;;;;;;5092345;28;20463;-62
2021/12/10 01:35:32;;;;;;;1.10;0.90;;;1.90;98.00;;;;;;5093720;28;20467;-62
2021/12/10 01:38:02;;;;;;;1.10;0.90;;;1.90;98.00;;;;;;5093543;28;20470;-62
2021/12/10 01:40:36;;;;;;;2.03;1.37;;;1.90;98.00;;;;;;5092141;28;20564;-62
2021/12/10 01:43:21;;;;;;;1.37;1.20;;;1.80;98.00;;;;;;5093478;28;20545;-62
2021/12/10 01:45:53;;;;;;;1.10;1.00;;;1.70;98.00;;;;;;5093355;28;20455;-63
2021/12/10 01:48:26;;;;;;;2.37;1.40;;;1.70;98.00;;;;;;5092032;28;20459;-61
2021/12/10 01:50:56;;;;;;;1.10;0.93;;;1.70;98.00;;;;;;5092045;28;20460;-61
2021/12/10 01:53:28;;;;;;;1.10;1.00;;;1.70;98.00;;;;;;5093230;28;20471;-61
2021/12/10 01:56:00;;;;;;;1.10;1.00;;;1.70;98.00;;;;;;5091699;28;20470;-61
2021/12/10 01:58:30;;;;;;;1.17;1.10;;;1.60;98.00;;;;;;5093233;28;20459;-61
2021/12/10 02:01:04;;;;;;;1.10;1.00;;;1.70;98.00;;;;;;5092969;28;20487;-61
2021/12/10 02:03:46;;;;;;;1.33;1.10;;;1.70;98.00;;;;;;5092880;28;20464;-61
2021/12/10 02:06:19;;;;;;;1.10;1.00;;;1.60;98.00;;;;;;5093232;28;20459;-62
2021/12/10 02:08:56;;;;;;;1.20;1.10;;;1.50;98.00;;;;;;5092973;28;20531;-61
2021/12/10 02:11:25;;;;;;;1.53;1.43;;;1.40;98.00;;;;;;5091836;28;20483;-62
2021/12/10 02:13:53;;;;;;;1.10;1.00;;;1.40;98.00;;;;;;5093053;28;20455;-61
2021/12/10 02:16:22;;;;;;;1.20;1.20;;;1.50;98.00;;;;;;5092824;28;20464;-61
2021/12/10 02:18:52;;;;;;;1.10;1.00;;;1.50;98.00;;;;;;5092941;28;20462;-62
2021/12/10 02:21:25;;;;;;;1.17;1.00;;;1.60;98.00;;;;;;5092951;28;20489;-62
2021/12/10 02:23:57;;;;;;;1.10;1.00;;;1.50;98.00;;;;;;5092779;28;20455;-61
2021/12/10 02:26:32;;;;;;;1.10;1.00;;;1.50;98.00;;;;;;5092814;28;20880;-62
2021/12/10 02:29:02;;;;;;;1.10;1.00;;;1.50;98.00;;;;;;5092876;28;20465;-62
2021/12/10 02:31:35;;;;;;;1.10;1.00;;;1.50;98.00;;;;;;5091762;28;20451;-62
2021/12/10 02:34:04;;;;;;;1.10;1.00;;;1.60;98.00;;;;;;5092677;28;20456;-62
2021/12/10 02:36:39;;;;;;;1.20;1.00;;;1.70;98.00;;;;;;5092879;28;20528;-61
2021/12/10 02:39:11;;;;;;;1.20;1.07;;;1.80;98.00;;;;;;5091370;28;20452;-62
2021/12/10 02:44:32;;;;;;;1.47;1.40;;;1.80;98.00;;;;;;5089989;28;20459;-61
2021/12/10 02:47:08;;;;;;;1.10;1.10;;;1.60;98.00;;;;;;5091895;28;20873;-62
2021/12/10 02:49:37;;;;;;;1.20;1.20;;;1.40;98.00;;;;;;5092341;28;20458;-61
2021/12/10 02:52:22;;;;;;;2.53;1.50;;;1.40;98.00;;;;;;5092058;28;20451;-61
2021/12/10 02:55:16;;;;;;;1.10;1.00;;;1.40;98.00;;;;;;5092024;28;20454;-61
2021/12/10 02:58:12;;;;;;;1.10;0.90;;;1.50;98.00;;;;;;5092020;28;20540;-62
2021/12/10 03:00:49;;;;;;;1.10;1.00;;;1.60;98.00;;;;;;5091869;28;20483;-61
2021/12/10 03:03:17;;;;;;;1.53;1.10;;;1.60;98.00;;;;;;5091759;28;20474;-61
2021/12/10 03:05:47;;;;;;;1.10;1.00;;;1.70;98.00;;;;;;5092096;28;20454;-61
2021/12/10 03:08:18;;;;;;;3.30;1.57;;;1.70;98.00;;;;;;5091731;28;20459;-61
2021/12/10 03:10:47;;;;;;;1.57;1.43;;;1.40;98.00;;;;;;5092054;28;20461;-62
2021/12/10 03:13:16;;;;;;;1.10;0.97;;;1.50;98.00;;;;;;5091882;28;20462;-62
2021/12/10 03:15:46;;;;;;;1.30;1.20;;;1.40;98.00;;;;;;5090825;28;20466;-62
2021/12/10 03:18:18;;;;;;;1.10;1.00;;;1.40;98.00;;;;;;5091748;28;20474;-61
2021/12/10 03:20:47;;;;;;;1.10;1.00;;;1.40;98.00;;;;;;5091843;28;20482;-61
2021/12/10 03:23:22;;;;;;;1.10;1.00;;;1.50;98.00;;;;;;5091719;28;20467;-62
2021/12/10 03:25:50;;;;;;;1.10;0.90;;;1.60;98.00;;;;;;5092094;28;20454;-61
2021/12/10 03:28:18;;;;;;;2.23;1.10;;;1.40;98.00;;;;;;5091359;28;20455;-62
2021/12/10 03:30:52;;;;;;;1.37;1.33;;;1.30;98.00;;;;;;5091995;28;20463;-62
2021/12/10 03:33:20;;;;;;;1.10;1.00;;;1.20;98.00;;;;;;5091779;28;20474;-61
2021/12/10 03:35:50;;;;;;;1.10;1.00;;;1.00;98.00;;;;;;5091896;28;20455;-61
2021/12/10 03:38:22;;;;;;;1.20;1.10;;;0.80;98.00;;;;;;5091665;28;20466;-62
2021/12/10 03:41:01;;;;;;;1.10;1.00;;;0.90;98.00;;;;;;5091922;28;20557;-61
2021/12/10 03:43:38;;;;;;;1.10;1.00;;;1.00;98.00;;;;;;5091253;28;20453;-61
2021/12/10 03:46:09;;;;;;;1.80;1.27;;;1.10;98.00;;;;;;5091552;28;20491;-62
2021/12/10 03:48:47;;;;;;;1.10;1.00;;;1.00;98.00;;;;;;5092032;28;20454;-62
2021/12/10 03:51:21;;;;;;;1.30;1.20;;;0.90;98.00;;;;;;5090526;28;20486;-62
2021/12/10 03:53:52;;;;;;;1.40;1.40;;;0.80;98.00;;;;;;5091532;28;20460;-61
2021/12/10 03:56:26;;;;;;;1.10;1.00;;;0.80;98.00;;;;;;5091762;28;20474;-62
2021/12/10 03:59:03;;;;;;;1.10;1.10;;;0.80;98.00;;;;;;5091661;28;20464;-61
2021/12/10 04:01:36;;;;;;;1.20;1.20;;;0.90;98.00;;;;;;5091255;28;20538;-61
2021/12/10 04:04:12;;;;;;;1.10;1.00;;;0.90;98.00;;;;;;5091483;28;20477;-61
2021/12/10 04:06:43;;;;;;;1.10;1.10;;;0.90;98.00;;;;;;5091429;28;20461;-62
2021/12/10 04:09:19;;;;;;;1.20;1.10;;;1.00;98.00;;;;;;5091366;28;20521;-61
2021/12/10 04:11:47;;;;;;;1.10;1.00;;;1.20;98.00;;;;;;5091453;28;20459;-61
2021/12/10 04:14:19;;;;;;;1.10;1.00;;;1.10;98.00;;;;;;5091159;28;20462;-61
2021/12/10 04:16:53;;;;;;;1.10;0.90;;;1.10;98.00;;;;;;5091305;28;20455;-61
2021/12/10 04:19:23;;;;;;;1.40;1.20;;;1.00;98.00;;;;;;5091261;28;20461;-60
2021/12/10 04:21:56;;;;;;;1.20;1.20;;;1.00;98.00;;;;;;5091177;28;20540;-61
2021/12/10 04:24:30;;;;;;;1.10;1.00;;;1.00;98.00;;;;;;5089948;28;20562;-62
2021/12/10 04:27:02;;;;;;;1.67;1.60;;;0.90;98.00;;;;;;5091413;28;20508;-61
2021/12/10 04:29:32;;;;;;;1.80;1.57;;;0.90;98.00;;;;;;5091340;28;20494;-61
2021/12/10 04:32:01;;;;;;;1.20;1.17;;;0.90;98.00;;;;;;5091241;28;20454;-61
2021/12/10 04:34:32;;;;;;;1.10;1.00;;;0.90;98.00;;;;;;5090003;28;20462;-61
2021/12/10 04:37:13;;;;;;;1.10;1.00;;;0.90;98.00;;;;;;5091409;28;20525;-60
2021/12/10 04:39:47;;;;;;;1.10;1.00;;;0.90;98.00;;;;;;5093189;28;20541;-62
2021/12/10 04:42:18;;;;;;;1.47;1.17;;;0.90;98.00;;;;;;5094564;28;20535;-62
2021/12/10 04:44:52;;;;;;;1.10;1.00;;;1.00;98.00;;;;;;5094846;28;20459;-62
2021/12/10 04:47:21;;;;;;;1.60;1.10;;;1.10;98.00;;;;;;5094582;28;20458;-62
2021/12/10 04:49:50;;;;;;;1.20;1.20;;;1.10;98.00;;;;;;5094723;28;20805;-61
2021/12/10 04:52:18;;;;;;;1.10;0.90;;;1.30;98.00;;;;;;5094393;28;20549;-62
2021/12/10 04:54:49;;;;;;;1.10;1.00;;;1.30;98.00;;;;;;5094580;28;20469;-61
2021/12/10 04:57:20;;;;;;;1.10;1.00;;;1.20;98.00;;;;;;5094298;28;20459;-61
2021/12/10 04:59:49;;;;;;;1.10;1.00;;;1.20;98.00;;;;;;5094023;28;20458;-62
2021/12/10 05:02:20;;;;;;;1.10;1.00;;;1.20;98.00;;;;;;5093509;28;20480;-61
2021/12/10 05:04:48;;;;;;;2.00;1.30;;;1.10;98.00;;;;;;5093551;28;20460;-61
2021/12/10 05:07:19;;;;;;;1.10;0.90;;;1.00;98.00;;;;;;5093947;28;20452;-61
2021/12/10 05:09:49;;;;;;;1.87;1.20;;;1.00;98.00;;;;;;5094312;28;20459;-61
2021/12/10 05:12:18;;;;;;;1.10;1.00;;;1.00;98.00;;;;;;5094284;28;20942;-61
2021/12/10 05:14:46;;;;;;;2.23;1.30;;;1.00;98.00;;;;;;5094263;28;20516;-61
2021/12/10 05:17:24;;;;;;;1.10;1.00;;;1.00;98.00;;;;;;5094146;28;20503;-61
2021/12/10 05:19:53;;;;;;;1.10;1.10;;;1.10;98.00;;;;;;5094109;28;20458;-62
2021/12/10 05:22:24;;;;;;;1.30;1.20;;;1.10;98.00;;;;;;5093844;28;21083;-62
2021/12/10 05:24:55;;;;;;;1.20;1.10;;;1.10;98.00;;;;;;5094162;28;20470;-61
2021/12/10 05:27:24;;;;;;;1.10;1.00;;;0.90;98.00;;;;;;5092169;28;20497;-61
2021/12/10 05:29:53;;;;;;;1.20;1.10;;;0.80;98.00;;;;;;5092537;28;20460;-61
2021/12/10 05:32:21;;;;;;;1.17;1.03;;;0.80;98.00;;;;;;5092431;28;20459;-61
2021/12/10 05:34:49;;;;;;;1.30;1.20;;;0.90;98.00;;;;;;5092628;28;20570;-61
2021/12/10 05:37:18;;;;;;;1.10;1.00;;;0.90;98.00;;;;;;5093439;28;20495;-61
2021/12/10 05:39:47;;;;;;;1.10;0.97;;;0.90;98.00;;;;;;5093829;28;20462;-61
2021/12/10 05:42:17;;;;;;;1.10;1.00;;;0.80;98.00;;;;;;5093392;28;20487;-61
2021/12/10 05:44:46;;;;;;;1.30;1.20;;;0.80;98.00;;;;;;5093451;28;20971;-62
2021/12/10 05:47:21;;;;;;;1.10;1.10;;;0.70;98.00;;;;;;5093187;28;20460;-61
2021/12/10 05:49:49;;;;;;;1.10;0.90;;;0.70;98.00;;;;;;5090938;28;20949;-61
2021/12/10 05:52:19;;;;;;;1.20;1.00;;;0.90;98.00;;;;;;5090610;28;20981;-61
2021/12/10 05:54:47;;;;;;;1.63;1.47;;;0.90;98.00;;;;;;5092681;28;20466;-61
2021/12/10 05:57:17;;;;;;;1.10;1.00;;;1.00;98.00;;;;;;5092485;28;20897;-61
2021/12/10 05:59:46;;;;;;;1.10;1.00;;;0.90;98.00;;;;;;5092499;28;20822;-62
2021/12/10 06:02:14;;;;;;;2.03;1.43;;;0.80;98.00;;;;;;5092256;28;20515;-62
2021/12/10 06:04:43;;;;;;;1.17;1.00;;;0.70;98.00;;;;;;5092195;28;20549;-61
2021/12/10 06:07:12;;;;;;;1.93;1.40;;;0.70;98.00;;;;;;5092343;28;20459;-61
2021/12/10 06:09:40;;;;;;;1.10;1.03;;;0.60;98.00;;;;;;5090949;28;20499;-62
2021/12/10 06:12:10;;;;;;;1.10;1.03;;;0.60;98.00;;;;;;5090851;28;20462;-61
2021/12/10 06:14:42;;;;;;;1.10;0.90;;;0.60;98.00;;;;;;5092189;28;20568;-62
2021/12/10 06:17:12;;;;;;;1.50;1.20;;;0.60;98.00;;;;;;5092166;28;20490;-61
2021/12/10 06:19:41;;;;;;;1.10;1.10;;;0.60;98.00;;;;;;5091075;28;20558;-61
2021/12/10 06:22:12;;;;;;;1.10;1.10;;;0.60;98.00;;;;;;5091880;28;20865;-61
2021/12/10 06:24:47;;;;;;;1.10;1.00;;;0.70;98.00;;;;;;5092012;28;20880;-61
2021/12/10 06:27:16;;;;;;;1.30;1.20;;;0.80;98.00;;;;;;5092001;28;20458;-60
2021/12/10 06:29:46;;;;;;;1.20;1.10;;;0.80;98.00;;;;;;5091510;28;20470;-62
2021/12/10 06:32:14;;;;;;;1.17;1.00;;;0.70;98.00;;;;;;5092095;28;20821;-61
2021/12/10 06:37:35;;;;;;;1.30;1.30;;;0.50;98.00;;;;;;5090079;28;20462;-61
2021/12/10 06:40:22;;;;;;;1.13;1.03;;;0.70;98.00;;;;;;5091667;28;20533;-62
2021/12/10 06:42:52;;;;;;;1.20;1.10;;;0.60;98.00;;;;;;5089652;28;20480;-61
2021/12/10 06:45:27;;;;;;;1.43;1.43;;;0.50;98.00;;;;;;5091970;28;20505;-61
2021/12/10 06:47:58;;;;;;;1.10;0.90;;;0.50;98.00;;;;;;5090582;28;20454;-61
2021/12/10 06:50:29;;;;;;;1.20;1.07;;;0.50;98.00;;;;;;5091846;28;20465;-60
2021/12/10 06:52:58;;;;;;;1.30;1.20;;;0.50;98.00;;;;;;5091513;28;20458;-62
2021/12/10 06:55:30;;;;;;;1.70;1.60;;;0.60;98.00;;;;;;5091389;28;20467;-61
2021/12/10 06:57:58;;;;;;;1.53;1.43;;;0.60;98.00;;;;;;5091430;28;20464;-62
2021/12/10 07:00:37;;;;;;;1.17;1.03;;;0.60;98.00;;;;;;5091375;28;20461;-61
2021/12/10 07:03:05;;;;;;;1.10;1.00;;;0.60;98.00;;;;;;5090388;28;20497;-61
2021/12/10 07:05:36;;;;;;;1.30;1.20;;;0.70;98.00;;;;;;5091304;28;20466;-61
2021/12/10 07:08:04;;;;;;;1.20;1.00;;;0.70;98.00;;;;;;5091180;28;20459;-62
2021/12/10 07:10:40;;;;;;;1.10;1.00;;;0.70;98.00;;;;;;5091078;28;20464;-62
2021/12/10 07:13:13;;;;;;;4.03;1.37;;;0.70;98.00;;;;;;5091206;28;20470;-61
2021/12/10 07:15:45;;;;;;;1.93;1.70;;;0.70;98.00;;;;;;5091150;28;20466;-62
2021/12/10 07:18:14;;;;;;;1.10;1.00;;;0.70;98.00;;;;;;5090579;28;20468;-62
2021/12/10 07:20:45;;;;;;;1.10;1.10;;;0.80;98.00;;;;;;5091051;28;20463;-61
2021/12/10 07:23:33;;;;;;;1.10;1.00;;;0.80;98.00;;;;;;5090999;28;20522;-61
2021/12/10 07:26:09;;;;;;;1.10;0.93;;;0.90;98.00;;;;;;5090995;28;20477;-62
2021/12/10 07:28:44;;;;;;;1.10;1.00;;;0.90;98.00;;;;;;5091067;28;20455;-61
2021/12/10 07:31:17;;;;;;;1.20;1.20;;;0.90;98.00;;;;;;5090968;28;20462;-61
2021/12/10 07:33:44;;;;;;;1.10;1.00;;;0.90;98.00;;;;;;5090893;28;20454;-62
2021/12/10 07:36:17;;;;;;;1.20;1.10;;;0.90;98.00;;;;;;5091038;28;20461;-61
2021/12/10 07:38:48;;;;;;;1.27;1.23;;;0.90;98.00;;;;;;5090917;28;20458;-61
2021/12/10 07:41:18;;;;;;;1.10;0.97;;;1.00;98.00;;;;;;5090845;28;20498;-61
2021/12/10 07:43:50;;;;;;;1.30;1.10;;;1.10;98.00;;;;;;5090562;28;20478;-61
2021/12/10 07:46:22;;;;;;;1.63;1.20;;;1.10;98.00;;;;;;5090391;28;20523;-62
2021/12/10 07:48:57;;;;;;;1.10;1.10;;;1.20;98.00;;;;;;5091033;28;20495;-61
2021/12/10 07:51:30;;;;;;;1.10;1.00;;;1.40;98.00;;;;;;5090829;28;20468;-62
2021/12/10 07:54:15;;;;;;;1.10;1.10;;;1.50;98.00;;;;;;5090809;28;20946;-62
2021/12/10 07:56:51;;;;;;;1.80;1.43;;;1.60;98.00;;;;;;5090897;28;20828;-62
2021/12/10 07:59:20;;;;;;;1.10;1.00;;;1.60;98.00;;;;;;5090726;28;20807;-61
2021/12/10 08:01:49;;;;;;;1.10;1.00;;;1.70;98.00;;;;;;5090745;28;20546;-61
2021/12/10 08:04:20;;;;;;;1.67;1.20;;;1.60;98.00;;;;;;5090851;28;20471;-61
2021/12/10 08:06:49;;;;;;;1.30;1.10;;;1.50;98.00;;;;;;5090528;28;20582;-61
2021/12/10 08:09:20;;;;;;;1.13;1.03;;;1.50;98.00;;;;;;5090211;28;20949;-61
2021/12/10 08:11:50;;;;;;;1.10;0.90;;;1.70;98.00;;;;;;5090584;28;20480;-62
2021/12/10 08:14:21;;;;;;;1.10;0.90;;;1.70;98.00;;;;;;5093750;28;21010;-61
2021/12/10 08:17:13;;;;;;;1.10;0.90;;;1.80;98.00;;;;;;5093813;28;20492;-62
2021/12/10 08:19:44;;;;;;;3.17;1.30;;;1.80;98.00;;;;;;5094456;28;20513;-61
2021/12/10 08:22:19;;;;;;;1.10;0.90;;;1.80;98.00;;;;;;5093855;28;20455;-62
2021/12/10 08:24:59;;;;;;;1.10;1.00;;;1.90;98.00;;;;;;5094092;28;20462;-62
2021/12/10 08:27:57;;;;;;;1.10;1.00;;;1.90;98.00;;;;;;5092824;28;20581;-61
2021/12/10 08:30:44;;;;;;;1.10;0.90;;;1.90;98.00;;;;;;5093331;28;20526;-61
2021/12/10 08:33:18;;;;;;;1.10;1.00;;;2.00;98.00;;;;;;5094074;28;20450;-62
2021/12/10 08:35:54;;;;;;;1.10;1.10;;;2.00;98.00;;;;;;5094124;28;20457;-62
2021/12/10 08:38:24;;;;;;;1.10;0.90;;;2.00;98.00;;;;;;5093940;28;20465;-62
2021/12/10 08:41:03;;;;;;;1.97;1.33;;;2.10;98.00;;;;;;5092699;28;20471;-62
2021/12/10 08:43:37;;;;;;;1.10;0.90;;;2.20;98.00;;;;;;5091684;28;20537;-62
2021/12/10 08:46:09;;;;;;;1.17;0.90;;;2.20;98.00;;;;;;5090332;28;20474;-62
2021/12/10 08:48:40;;;;;;;1.10;1.00;;;2.60;98.00;;;;;;5091067;28;20468;-63
2021/12/10 08:51:13;;;;;;;1.10;1.00;;;2.70;98.00;;;;;;5089389;28;20550;-62
2021/12/10 08:53:43;;;;;;;1.97;1.20;;;2.80;98.00;;;;;;5091326;28;20456;-62
2021/12/10 08:56:18;;;;;;;1.13;1.00;;;2.80;98.00;;;;;;5090944;28;20464;-61
2021/12/10 08:58:53;;;;;;;1.67;1.17;;;2.70;98.00;;;;;;5091119;28;20534;-61
2021/12/10 09:01:26;;;;;;;1.10;1.00;;;2.70;98.00;;;;;;5091041;28;20473;-61
2021/12/10 09:04:13;;;;;;;1.10;1.00;;;2.70;98.00;;;;;;5090705;28;20565;-61
2021/12/10 09:06:51;;;;;;;1.10;0.90;;;2.80;98.00;;;;;;5091044;28;20473;-62
2021/12/10 09:09:27;;;;;;;1.10;1.00;;;2.80;98.00;;;;;;5082508;28;20467;-62
2021/12/10 09:11:58;;;;;;;1.10;1.10;;;2.80;98.00;;;;;;5082596;28;21002;-61
2021/12/10 09:14:30;;;;;;;1.83;1.63;;;2.80;98.00;;;;;;5090579;28;20456;-61
2021/12/10 09:17:07;;;;;;;1.30;1.20;;;2.60;98.00;;;;;;5090722;28;20543;-62
2021/12/10 09:19:42;;;;;;;1.10;1.00;;;2.70;98.00;;;;;;5090848;28;20466;-62
2021/12/10 09:22:13;;;;;;;1.37;1.30;;;2.60;98.00;;;;;;5090845;28;20452;-62
2021/12/10 09:24:43;;;;;;;1.53;1.40;;;2.60;98.00;;;;;;5089234;28;20456;-61
2021/12/10 09:27:33;;;;;;;;;;;;;;;;;;;;;
2021/12/10 09:30:31;;;;;;;;;;;;;;;;;;;;;
2021/12/10 09:32:59;;;;;;;1.10;0.90;;;2.60;98.00;;;;;;5083641;28;20521;-62
2021/12/10 09:35:32;;;;;;;1.10;1.00;;;2.70;98.00;;;;;;5089352;28;20474;-62
2021/12/10 09:38:02;;;;;;;1.20;1.10;;;4.00;98.00;;;;;;5090495;28;20480;-61
2021/12/10 09:40:36;;;;;;;1.10;1.00;;;4.40;98.00;;;;;;5090182;28;20488;-61
2021/12/10 09:43:11;;;;;;;1.20;1.00;;;4.90;98.00;;;;;;5090368;28;20507;-61
2021/12/10 09:45:46;;;;;;;1.17;0.90;;;5.00;98.00;;;;;;5090248;28;20802;-63
2021/12/10 09:48:17;;;;;;;1.70;1.10;;;4.90;98.00;;;;;;5090638;28;20494;-62
2021/12/10 09:50:54;;;;;;;1.20;1.00;;;4.70;98.00;;;;;;5088298;28;20497;-62
2021/12/10 09:53:23;;;;;;;1.20;1.10;;;4.40;98.00;;;;;;5090264;28;20452;-62
2021/12/10 09:56:03;;;;;;;1.20;1.00;;;4.20;98.00;;;;;;5090095;28;20445;-63
2021/12/10 09:58:46;;;;;;;1.20;1.00;;;4.00;98.00;;;;;;5089631;28;20548;-62
2021/12/10 10:01:22;;;;;;;1.20;1.00;;;3.70;98.00;;;;;;5081969;28;20455;-62
2021/12/10 10:04:00;;;;;;;1.20;1.00;;;3.70;98.00;;;;;;5089550;28;21091;-61
2021/12/10 10:06:40;;;;;;;1.20;1.00;;;3.50;98.00;;;;;;5089798;28;20452;-62
2021/12/10 10:09:15;;;;;;;1.40;1.33;;;3.40;98.00;;;;;;5089974;28;20539;-62
2021/12/10 10:11:44;;;;;;;1.40;1.20;;;3.40;98.00;;;;;;5089845;28;20469;-62
2021/12/10 10:14:12;;;;;;;1.80;1.20;;;3.30;98.00;;;;;;5089583;28;20466;-62
2021/12/10 10:16:50;;;;;;;1.20;1.00;;;3.30;98.00;;;;;;5089681;28;20456;-62
2021/12/10 10:19:19;;;;;;;1.17;1.00;;;3.60;98.00;;;;;;5089440;28;20506;-62
2021/12/10 10:22:01;;;;;;;1.20;1.00;;;3.80;98.00;;;;;;5089589;28;20456;-61
2021/12/10 10:24:38;;;;;;;1.10;1.00;;;3.80;98.00;;;;;;5089568;28;20562;-61
2021/12/10 10:27:20;;;;;;;1.20;1.00;;;3.80;98.00;;;;;;5081458;28;20471;-63
2021/12/10 10:29:52;;;;;;;1.20;1.10;;;3.80;98.00;;;;;;5082831;28;20468;-63
2021/12/10 10:32:24;;;;;;;1.17;1.00;;;3.80;98.00;;;;;;5090015;28;20463;-63
2021/12/10 10:34:54;;;;;;;1.20;1.00;;;3.70;98.00;;;;;;5090754;28;21427;-63
2021/12/10 10:37:25;;;;;;;1.20;1.00;;;3.80;98.00;;;;;;5090447;28;20471;-62
2021/12/10 10:39:55;;;;;;;1.20;1.00;;;3.70;98.00;;;;;;5089228;28;20602;-62
2021/12/10 10:42:28;;;;;;;1.13;1.00;;;3.60;98.00;;;;;;5089568;28;20464;-62
2021/12/10 10:45:09;;;;;;;1.20;1.00;;;3.70;98.00;;;;;;5089287;28;20534;-61
2021/12/10 10:47:42;;;;;;;1.20;1.00;;;3.60;98.00;;;;;;5089289;28;20469;-62
2021/12/10 10:50:20;;;;;;;1.10;0.90;;;3.60;98.00;;;;;;5087073;28;20898;-63
2021/12/10 10:52:54;;;;;;;1.13;1.00;;;3.60;98.00;;;;;;5088975;28;20491;-62
2021/12/10 10:55:37;;;;;;;1.10;0.90;;;3.70;98.00;;;;;;5089374;28;20513;-62
2021/12/10 10:58:09;;;;;;;1.20;1.00;;;3.60;98.00;;;;;;5080940;28;20547;-63
2021/12/10 11:00:46;;;;;;;1.20;1.00;;;3.70;98.00;;;;;;5089073;28;20942;-63
2021/12/10 11:03:24;;;;;;;1.20;1.00;;;3.70;98.00;;;;;;5088701;28;20506;-62
2021/12/10 11:05:57;;;;;;;1.10;1.00;;;3.70;98.00;;;;;;5088949;28;20447;-61
2021/12/10 11:08:39;;;;;;;1.20;1.20;;;3.80;98.00;;;;;;5088355;28;20510;-62
2021/12/10 11:11:11;;;;;;;1.20;1.10;;;3.80;98.00;;;;;;5088869;28;20498;-63
2021/12/10 11:13:40;;;;;;;1.13;0.90;;;3.90;98.00;;;;;;5088715;28;20973;-61
2021/12/10 11:16:12;;;;;;;1.87;1.77;;;3.80;98.00;;;;;;5088698;28;20964;-61
2021/12/10 11:18:50;;;;;;;2.80;1.10;;;3.80;98.00;;;;;;5088729;28;20538;-62
2021/12/10 11:21:34;;;;;;;1.43;1.33;;;3.80;98.00;;;;;;5088523;28;20447;-63
2021/12/10 11:24:20;;;;;;;1.10;0.90;;;3.80;98.00;;;;;;5080965;28;20993;-63
2021/12/10 11:27:02;;;;;;;1.10;1.00;;;3.70;98.00;;;;;;5088912;28;20513;-62
2021/12/10 11:29:45;;;;;;;1.10;1.00;;;3.70;98.00;;;;;;5088615;28;20459;-62
2021/12/10 11:32:17;;;;;;;1.20;1.00;;;3.60;98.00;;;;;;5088668;28;21030;-61
2021/12/10 11:34:53;;;;;;;1.10;0.90;;;3.60;98.00;;;;;;5089312;28;20467;-61
2021/12/10 11:37:51;;;;;;;1.10;1.00;;;3.50;98.00;;;;;;5089051;28;20867;-63
2021/12/10 11:40:50;;;;;;;3.10;1.37;;;3.50;98.00;;;;;;5083396;28;20580;-61
2021/12/10 11:43:44;;;;;;;1.13;1.00;;;3.50;98.00;;;;;;5088987;28;20479;-61
2021/12/10 11:49:09;;;;;;;1.10;1.00;;;3.50;98.00;;;;;;5087396;28;20450;-62
2021/12/10 11:51:42;;;;;;;1.10;1.00;;;3.50;98.00;;;;;;5092105;28;20905;-62
2021/12/10 11:54:21;;;;;;;1.10;1.00;;;3.60;98.00;;;;;;5091990;28;20803;-61
2021/12/10 11:56:54;;;;;;;1.20;1.00;;;3.60;98.00;;;;;;5093425;28;20542;-62
2021/12/10 11:59:27;;;;;;;1.20;1.00;;;3.70;98.00;;;;;;5092676;28;20453;-61
2021/12/10 12:01:59;;;;;;;1.13;1.00;;;3.70;98.00;;;;;;5092509;28;20486;-61
2021/12/10 12:04:32;;;;;;;1.10;1.00;;;3.70;98.00;;;;;;5092261;28;20979;-62
2021/12/10 12:07:40;;;;;;;1.23;1.07;;;3.70;98.00;;;;;;5093048;28;20811;-62
2021/12/10 12:10:19;;;;;;;1.17;1.00;;;3.80;98.00;;;;;;5088531;28;20447;-61
2021/12/10 12:13:09;;;;;;;1.10;1.00;;;3.70;98.00;;;;;;5091998;28;20455;-61
2021/12/10 12:15:41;;;;;;;1.60;1.10;;;3.80;98.00;;;;;;5092210;28;20464;-61
2021/12/10 12:18:24;;;;;;;1.47;1.00;;;3.70;98.00;;;;;;5092524;28;20781;-63
2021/12/10 12:20:56;;;;;;;1.10;1.00;;;3.80;98.00;;;;;;5084961;28;20466;-62
2021/12/10 12:26:21;;;;;;;1.17;1.00;;;3.80;98.00;;;;;;5092314;28;20489;-63
2021/12/10 12:28:57;;;;;;;2.00;1.93;;;3.90;98.00;;;;;;5092454;28;20451;-62
2021/12/10 12:31:28;;;;;;;1.20;1.00;;;3.90;98.00;;;;;;5092415;28;20474;-63
2021/12/10 12:34:02;;;;;;;1.20;1.00;;;4.00;98.00;;;;;;5092433;28;20492;-63
2021/12/10 12:36:36;;;;;;;1.10;1.00;;;3.90;98.00;;;;;;5092332;28;20451;-63
2021/12/10 12:39:09;;;;;;;1.20;1.10;;;3.80;98.00;;;;;;5092410;28;20516;-63
2021/12/10 12:41:40;;;;;;;1.20;1.00;;;3.70;98.00;;;;;;5092578;28;20474;-63
2021/12/10 12:44:19;;;;;;;1.10;1.00;;;3.60;98.00;;;;;;5092282;28;20873;-64
2021/12/10 12:47:10;;;;;;;1.73;1.63;;;3.40;98.00;;;;;;5084349;28;20456;-63
2021/12/10 12:49:59;;;;;;;1.20;1.00;;;3.30;98.00;;;;;;5090157;28;20471;-62
2021/12/10 12:52:36;;;;;;;1.10;0.90;;;3.20;98.00;;;;;;5092148;28;20531;-62
2021/12/10 12:55:29;;;;;;;1.40;1.20;;;3.10;98.00;;;;;;5092049;28;20455;-62
2021/12/10 12:58:05;;;;;;;1.20;1.00;;;3.10;98.00;;;;;;5091449;28;20469;-62
2021/12/10 13:00:58;;;;;;;1.10;0.90;;;3.00;98.00;;;;;;5090709;28;20459;-63
2021/12/10 13:03:33;;;;;;;1.10;1.00;;;3.10;98.00;;;;;;5091151;28;20479;-62
2021/12/10 13:06:11;;;;;;;1.10;1.00;;;2.90;98.00;;;;;;5091673;28;20452;-62
2021/12/10 13:08:46;;;;;;;1.10;1.00;;;2.90;98.00;;;;;;5091764;28;20845;-63
2021/12/10 13:11:21;;;;;;;3.47;1.10;;;2.90;98.00;;;;;;5091993;28;20451;-63
2021/12/10 13:13:53;;;;;;;1.10;1.00;;;2.80;98.00;;;;;;5090399;28;20455;-64
2021/12/10 13:16:42;;;;;;;1.10;1.00;;;2.70;98.00;;;;;;5084112;28;20482;-62
2021/12/10 13:19:25;;;;;;;1.37;1.17;;;2.60;98.00;;;;;;5091686;28;20456;-63
2021/12/10 13:22:05;;;;;;;2.37;1.17;;;2.50;98.00;;;;;;5090930;28;20455;-63
2021/12/10 13:24:34;;;;;;;1.10;1.00;;;2.60;98.00;;;;;;5090896;28;20491;-62
2021/12/10 13:27:13;;;;;;;1.10;0.90;;;2.60;98.00;;;;;;5091250;28;20466;-62
2021/12/10 13:29:50;;;;;;;1.30;1.10;;;2.50;98.00;;;;;;5091172;28;20467;-62
2021/12/10 13:32:35;;;;;;;1.10;1.10;;;2.50;98.00;;;;;;5091036;28;20451;-62
2021/12/10 13:35:16;;;;;;;1.10;1.10;;;2.60;98.00;;;;;;5084122;28;20466;-63
2021/12/10 13:37:45;;;;;;;1.10;0.90;;;2.50;98.00;;;;;;5091116;28;20464;-62
2021/12/10 13:40:16;;;;;;;4.43;2.13;;;2.60;98.00;;;;;;5090933;28;20455;-63
2021/12/10 13:43:03;;;;;;;1.10;1.00;;;2.60;98.00;;;;;;5091243;28;20456;-62
2021/12/10 13:45:41;;;;;;;1.20;1.20;;;2.50;98.00;;;;;;5091121;28;20498;-62
2021/12/10 13:48:17;;;;;;;1.20;1.20;;;2.70;98.00;;;;;;5090786;28;20490;-62
2021/12/10 13:50:58;;;;;;;1.10;1.07;;;2.70;98.00;;;;;;5088944;28;20879;-62
2021/12/10 13:54:22;;;;;;;1.10;1.00;;;2.70;98.00;;;;;;5082569;28;20488;-62
2021/12/10 13:57:10;;;;;;;1.87;1.53;;;2.80;98.00;;;;;;5085059;28;20455;-62